Time;durP1;ratioP1;P1;durP2;ratioP2;P2;SDS_P1;SDS_P2;PMS_P1;PMS_P2;Temp;Humidity;BMP_temperature;BMP_pressure;BME280_temperature;BME280_humidity;BME280_pressure;Samples;Min_cycle;Max_cycle;Signal;HPM_P1;HPM_P2
2023/05/07 00:01:51;;;;;;;4.47;3.55;;;;;;;23.54;83.70;96245.38;4998052;28;20085;-54
2023/05/07 00:04:21;;;;;;;6.93;4.20;;;;;;;23.49;81.43;96244.44;4997625;28;20086;-53
2023/05/07 00:06:49;;;;;;;7.20;5.28;;;;;;;23.45;80.69;96252.97;5001199;28;20132;-55
2023/05/07 00:09:18;;;;;;;10.82;6.38;;;;;;;23.40;82.48;96247.47;5000163;28;20460;-52
2023/05/07 00:11:46;;;;;;;7.75;5.50;;;;;;;23.44;81.41;96248.63;5004836;28;20093;-54
2023/05/07 00:14:14;;;;;;;6.40;4.78;;;;;;;23.46;80.86;96251.91;5001923;28;20085;-54
2023/05/07 00:16:43;;;;;;;11.65;5.90;;;;;;;23.44;82.00;96243.25;4998920;28;20516;-56
2023/05/07 00:19:11;;;;;;;9.05;5.65;;;;;;;23.41;82.90;96245.59;5000442;28;20879;-52
2023/05/07 00:21:41;;;;;;;8.65;5.38;;;;;;;23.35;83.11;96250.00;4999167;28;20090;-54
2023/05/07 00:24:09;;;;;;;11.17;6.20;;;;;;;23.41;82.00;96251.78;5001427;28;20085;-59
2023/05/07 00:26:37;;;;;;;8.35;6.20;;;;;;;23.40;83.67;96241.22;4997626;28;20085;-59
2023/05/07 00:29:06;;;;;;;9.68;5.00;;;;;;;23.16;85.50;96243.88;4999424;28;20093;-56
2023/05/07 00:31:35;;;;;;;9.13;5.65;;;;;;;23.37;83.23;96247.09;4998961;28;20070;-49
2023/05/07 00:34:03;;;;;;;8.90;5.72;;;;;;;23.28;82.16;96243.91;5000822;28;22170;-50
2023/05/07 00:36:31;;;;;;;8.70;5.50;;;;;;;23.15;83.28;96242.22;4995824;28;20141;-55
2023/05/07 00:39:03;;;;;;;9.45;5.55;;;;;;;23.21;83.18;96237.81;4999608;28;20088;-56
2023/05/07 00:41:31;;;;;;;6.63;4.57;;;;;;;23.16;85.62;96230.44;4998519;28;20068;-53
2023/05/07 00:44:00;;;;;;;9.98;4.97;;;;;;;23.30;84.73;96230.25;5003030;28;20073;-52
2023/05/07 00:46:30;;;;;;;10.52;4.32;;;;;;;23.20;87.30;96233.50;4996639;28;20128;-52
2023/05/07 00:48:59;;;;;;;8.50;4.35;;;;;;;23.15;86.72;96227.97;4998964;28;20509;-54
2023/05/07 00:51:27;;;;;;;7.85;4.10;;;;;;;22.96;88.59;96224.53;4999679;28;20081;-55
2023/05/07 00:53:56;;;;;;;6.18;3.60;;;;;;;22.81;90.89;96227.56;4999286;28;20076;-51
2023/05/07 00:56:25;;;;;;;8.90;3.78;;;;;;;22.73;91.90;96228.72;4997064;28;20089;-51
2023/05/07 00:58:54;;;;;;;7.40;4.43;;;;;;;22.86;91.28;96216.97;4998684;28;20089;-52
2023/05/07 01:01:22;;;;;;;5.13;3.63;;;;;;;22.63;96.48;96224.91;4999346;28;20130;-54
2023/05/07 01:03:51;;;;;;;6.63;3.75;;;;;;;22.75;92.00;96226.63;4999260;28;20087;-55
2023/05/07 01:06:21;;;;;;;5.53;3.00;;;;;;;22.69;87.89;96230.22;4997996;28;20081;-49
2023/05/07 01:08:50;;;;;;;4.60;3.35;;;;;;;22.68;88.65;96230.47;4994907;28;20081;-52
2023/05/07 01:11:19;;;;;;;4.30;3.20;;;;;;;22.73;89.99;96234.09;5000065;28;20070;-55
2023/05/07 01:13:50;;;;;;;8.45;3.78;;;;;;;22.44;96.05;96235.69;5002829;28;20537;-55
2023/05/07 01:16:18;;;;;;;4.53;3.30;;;;;;;22.71;91.13;96232.66;5003464;28;20104;-55
2023/05/07 01:18:48;;;;;;;5.63;4.00;;;;;;;22.68;90.54;96238.53;4996797;28;20069;-56
2023/05/07 01:21:18;;;;;;;7.60;3.95;;;;;;;22.40;93.78;96241.72;4998863;28;20176;-55
2023/05/07 01:23:48;;;;;;;7.78;4.55;;;;;;;21.73;100.00;96246.94;4995047;28;20086;-55
2023/05/07 01:26:19;;;;;;;7.38;5.45;;;;;;;21.81;100.00;96239.41;4999353;28;20085;-56
2023/05/07 01:28:47;;;;;;;7.07;5.63;;;;;;;22.40;94.85;96230.97;5003333;28;20077;-52
2023/05/07 01:31:17;;;;;;;8.27;5.80;;;;;;;22.61;91.33;96230.53;5000623;28;20132;-55
2023/05/07 01:33:46;;;;;;;8.77;6.15;;;;;;;22.32;93.86;96231.28;5000796;28;20092;-57
2023/05/07 01:36:14;;;;;;;10.00;6.80;;;;;;;22.29;93.43;96221.81;5001446;28;20571;-55
2023/05/07 01:38:43;;;;;;;10.00;6.60;;;;;;;22.61;90.50;96221.63;4999676;28;20082;-54
2023/05/07 01:41:13;;;;;;;11.85;6.47;;;;;;;22.46;92.08;96216.66;5001331;28;20481;-50
2023/05/07 01:43:42;;;;;;;8.07;6.47;;;;;;;22.79;87.74;96218.94;4998078;28;20093;-55
2023/05/07 01:46:11;;;;;;;8.98;6.85;;;;;;;22.81;87.33;96227.56;5000963;28;20080;-53
2023/05/07 01:48:40;;;;;;;10.63;5.72;;;;;;;22.83;87.16;96222.78;4998539;28;20481;-57
2023/05/07 01:51:09;;;;;;;7.55;5.70;;;;;;;22.80;85.66;96217.88;5000827;28;20077;-55
2023/05/07 01:53:38;;;;;;;6.93;5.80;;;;;;;22.73;87.28;96219.81;4996043;28;20108;-55
2023/05/07 01:56:07;;;;;;;7.00;5.50;;;;;;;22.75;87.35;96221.25;5001088;28;20112;-53
2023/05/07 01:58:37;;;;;;;7.53;5.05;;;;;;;22.74;87.51;96221.47;5004873;28;20089;-54
2023/05/07 02:01:05;;;;;;;6.50;5.10;;;;;;;22.72;87.23;96218.19;5003697;28;20092;-57
2023/05/07 02:03:33;;;;;;;6.00;5.05;;;;;;;22.80;85.61;96217.88;5001176;28;20112;-55
2023/05/07 02:06:02;;;;;;;8.65;6.22;;;;;;;22.66;85.00;96211.84;5002409;28;20465;-52
2023/05/07 02:08:30;;;;;;;8.18;5.95;;;;;;;22.64;85.45;96221.19;4998014;28;20077;-54
2023/05/07 02:10:59;;;;;;;12.98;8.30;;;;;;;22.55;86.84;96215.31;5005386;28;20088;-53
2023/05/07 02:13:29;;;;;;;10.70;7.97;;;;;;;22.68;86.27;96227.75;5005377;28;20892;-57
2023/05/07 02:15:59;;;;;;;7.25;5.47;;;;;;;22.68;85.54;96227.75;5003125;28;20092;-56
2023/05/07 02:18:27;;;;;;;6.65;5.35;;;;;;;22.60;86.05;96231.56;5001234;28;20112;-56
2023/05/07 02:20:56;;;;;;;9.02;6.10;;;;;;;22.40;86.58;96230.97;5007109;28;20092;-52
2023/05/07 02:23:24;;;;;;;8.02;4.88;;;;;;;22.48;86.83;96225.31;5002069;28;20085;-57
2023/05/07 02:25:52;;;;;;;5.60;4.05;;;;;;;22.47;87.28;96223.66;5005001;28;20141;-54
2023/05/07 02:28:21;;;;;;;6.43;5.55;;;;;;;22.54;85.94;96224.44;5000512;28;20141;-52
2023/05/07 02:30:49;;;;;;;11.40;5.82;;;;;;;22.60;87.52;96226.19;5001177;28;20085;-53
2023/05/07 02:33:20;;;;;;;7.38;5.25;;;;;;;22.61;86.07;96224.31;5006326;28;20545;-51
2023/05/07 02:35:48;;;;;;;;;;;;;;;22.40;89.77;96234.50;5002444;28;20086;-54
2023/05/07 02:38:16;;;;;;;5.28;4.20;;;;;;;22.48;89.56;96234.19;4998286;28;20030;-53
2023/05/07 02:40:44;;;;;;;5.88;4.65;;;;;;;22.49;87.88;96235.84;4998246;28;20100;-52
2023/05/07 02:43:13;;;;;;;6.57;5.22;;;;;;;22.49;87.16;96229.63;5001369;28;20555;-55
2023/05/07 02:45:43;;;;;;;8.90;5.63;;;;;;;22.02;95.03;96235.50;5002366;28;20098;-57
2023/05/07 02:48:11;;;;;;;8.30;5.63;;;;;;;22.30;91.17;96228.00;4996950;28;20096;-54
2023/05/07 02:50:41;;;;;;;8.93;5.75;;;;;;;22.45;88.55;96226.59;5006466;28;20551;-55
2023/05/07 02:53:09;;;;;;;8.70;6.03;;;;;;;22.49;88.13;96225.09;4997080;28;20104;-53
2023/05/07 02:55:37;;;;;;;10.05;6.10;;;;;;;22.39;87.72;96222.09;5002544;28;20081;-56
2023/05/07 02:58:06;;;;;;;6.63;5.15;;;;;;;22.38;88.53;96227.72;5002035;28;20454;-52
2023/05/07 03:00:34;;;;;;;8.43;5.15;;;;;;;22.33;88.83;96230.25;5002550;28;20093;-55
2023/05/07 03:03:02;;;;;;;6.10;4.70;;;;;;;22.30;91.53;96222.63;5000187;28;20082;-53
2023/05/07 03:05:31;;;;;;;6.65;4.88;;;;;;;22.14;94.52;96224.84;4996931;28;20088;-57
2023/05/07 03:08:01;;;;;;;6.70;5.20;;;;;;;22.15;95.19;96223.00;5000307;28;20088;-56
2023/05/07 03:10:29;;;;;;;11.10;5.17;;;;;;;22.10;96.61;96225.53;4999596;28;20089;-56
2023/05/07 03:12:57;;;;;;;8.65;5.30;;;;;;;22.12;95.65;96220.72;4998101;28;20500;-55
2023/05/07 03:15:26;;;;;;;8.40;5.00;;;;;;;22.10;94.26;96220.16;4987081;28;20093;-58
2023/05/07 03:17:54;;;;;;;5.40;4.40;;;;;;;22.17;91.33;96216.38;5005421;28;20084;-56
2023/05/07 03:20:22;;;;;;;5.68;4.43;;;;;;;21.24;100.00;96225.22;5006106;28;20082;-55
2023/05/07 03:22:51;;;;;;;8.02;5.60;;;;;;;21.37;99.73;96229.69;5001706;28;20041;-54
2023/05/07 03:25:21;;;;;;;6.38;4.80;;;;;;;21.49;98.64;96227.94;5000425;28;20181;-54
2023/05/07 03:27:49;;;;;;;7.40;4.37;;;;;;;21.39;100.00;96219.53;5001572;28;20177;-52
2023/05/07 03:30:17;;;;;;;8.02;4.07;;;;;;;21.52;97.75;96221.31;4999198;28;20089;-54
2023/05/07 03:32:46;;;;;;;6.93;4.55;;;;;;;21.72;96.29;96235.38;4999965;28;20127;-56
2023/05/07 03:35:15;;;;;;;7.78;4.53;;;;;;;21.80;94.66;96226.22;4999364;28;20084;-55
2023/05/07 03:37:43;;;;;;;6.95;4.35;;;;;;;21.87;93.01;96228.84;5001563;28;20096;-59
2023/05/07 03:40:12;;;;;;;10.32;4.70;;;;;;;21.98;92.39;96226.22;5003078;28;20099;-55
2023/05/07 03:42:42;;;;;;;6.80;4.78;;;;;;;21.93;92.84;96222.59;5003719;28;20078;-54
2023/05/07 03:45:11;;;;;;;7.32;5.47;;;;;;;21.92;94.20;96210.19;4983885;28;20530;-58
2023/05/07 03:47:39;;;;;;;7.10;4.78;;;;;;;21.53;100.00;96204.97;5003180;28;20092;-58
2023/05/07 03:50:08;;;;;;;9.10;5.03;;;;;;;21.65;99.12;96206.97;5002003;28;20084;-56
2023/05/07 03:52:37;;;;;;;7.70;5.40;;;;;;;21.77;98.18;96211.38;4998441;28;20092;-57
2023/05/07 03:55:06;;;;;;;9.48;4.85;;;;;;;21.85;96.99;96215.66;4999883;28;20089;-55
2023/05/07 03:57:34;;;;;;;8.02;4.88;;;;;;;21.73;99.79;96218.22;4997557;28;20096;-55
2023/05/07 04:00:06;;;;;;;7.40;5.22;;;;;;;21.59;100.00;96223.94;4981826;28;20080;-55
2023/05/07 04:02:34;;;;;;;7.25;5.60;;;;;;;21.27;100.00;96222.09;4997305;28;20073;-52
2023/05/07 04:05:03;;;;;;;6.65;4.80;;;;;;;21.75;99.27;96224.22;4985095;28;20077;-51
2023/05/07 04:07:31;;;;;;;7.72;4.47;;;;;;;21.20;100.00;96231.22;4999875;28;20069;-56
2023/05/07 04:10:00;;;;;;;6.88;5.07;;;;;;;21.35;100.00;96239.81;5003495;28;20089;-54
2023/05/07 04:12:28;;;;;;;7.25;5.40;;;;;;;21.78;98.56;96247.94;5000104;28;20081;-54
2023/05/07 04:14:56;;;;;;;11.63;6.45;;;;;;;21.38;100.00;96244.75;5001314;28;20485;-51
2023/05/07 04:17:26;;;;;;;8.77;6.57;;;;;;;21.26;99.77;96251.81;4999681;28;20089;-54
2023/05/07 04:19:54;;;;;;;8.70;6.33;;;;;;;21.74;94.07;96253.94;5002788;28;20077;-53
2023/05/07 04:22:23;;;;;;;11.82;7.05;;;;;;;21.93;92.74;96252.94;5000408;28;20500;-50
2023/05/07 04:24:51;;;;;;;9.95;6.60;;;;;;;21.90;92.38;96263.31;5002483;28;20096;-52
2023/05/07 04:27:20;;;;;;;7.65;5.70;;;;;;;21.80;93.95;96263.81;5006166;28;20069;-50
2023/05/07 04:29:48;;;;;;;9.63;5.57;;;;;;;21.94;91.38;96270.69;4999861;28;20533;-55
2023/05/07 04:32:17;;;;;;;12.70;7.43;;;;;;;21.81;94.04;96273.47;4995455;28;20069;-56
2023/05/07 04:34:47;;;;;;;11.30;8.30;;;;;;;22.03;92.39;96261.31;4998627;28;20089;-51
2023/05/07 04:37:15;;;;;;;10.50;6.87;;;;;;;22.27;89.68;96253.47;4998516;28;20524;-57
2023/05/07 04:39:43;;;;;;;9.27;6.15;;;;;;;22.48;85.24;96261.06;5005852;28;20086;-52
2023/05/07 04:42:15;;;;;;;9.73;7.28;;;;;;;22.73;82.95;96249.41;4998025;28;20085;-53
2023/05/07 04:44:44;;;;;;;10.90;7.30;;;;;;;22.96;79.15;96256.78;4997832;28;20077;-55
2023/05/07 04:47:13;;;;;;;8.80;7.05;;;;;;;23.51;75.74;96250.41;4995874;28;20089;-54
2023/05/07 04:49:41;;;;;;;11.88;7.32;;;;;;;24.00;71.11;96242.97;4997349;28;20097;-51
2023/05/07 04:52:11;;;;;;;8.43;7.00;;;;;;;24.47;67.15;96234.88;4998750;28;20089;-57
2023/05/07 04:54:39;;;;;;;11.47;7.03;;;;;;;24.96;63.03;96240.69;5001330;28;20100;-55
2023/05/07 04:57:07;;;;;;;9.02;7.07;;;;;;;25.90;58.73;96237.50;5000031;28;20092;-56
2023/05/07 04:59:36;;;;;;;6.53;5.60;;;;;;;26.21;55.37;96239.56;5005606;28;20081;-53
2023/05/07 05:02:04;;;;;;;7.05;6.20;;;;;;;25.77;57.19;96246.72;5000383;28;20092;-55
2023/05/07 05:04:32;;;;;;;10.43;5.63;;;;;;;26.72;52.69;96248.38;4995271;28;20097;-55
2023/05/07 05:07:01;;;;;;;5.13;4.55;;;;;;;27.20;50.85;96256.78;5000182;28;20085;-52
2023/05/07 05:09:30;;;;;;;5.18;4.68;;;;;;;27.41;49.72;96253.22;4999997;28;20092;-52
2023/05/07 05:11:59;;;;;;;7.13;5.07;;;;;;;28.11;48.06;96247.81;4997880;28;20089;-51
2023/05/07 05:14:28;;;;;;;5.57;5.00;;;;;;;28.14;48.10;96250.00;4998245;28;20090;-55
2023/05/07 05:16:56;;;;;;;6.28;5.05;;;;;;;28.35;47.08;96256.38;4998976;28;20533;-52
2023/05/07 05:19:24;;;;;;;11.95;5.90;;;;;;;28.33;46.77;96256.66;4996629;28;20080;-53
2023/05/07 05:21:53;;;;;;;9.32;5.68;;;;;;;28.40;46.14;96259.16;4998957;28;20206;-50
2023/05/07 05:24:21;;;;;;;7.55;5.57;;;;;;;28.43;46.51;96255.13;4996065;28;20120;-54
2023/05/07 05:26:50;;;;;;;5.95;5.03;;;;;;;28.35;47.20;96262.63;4992586;28;20082;-55
2023/05/07 05:29:19;;;;;;;6.15;5.07;;;;;;;28.29;48.41;96263.69;5000280;28;20084;-52
2023/05/07 05:31:47;;;;;;;5.30;4.80;;;;;;;28.17;49.53;96261.16;5002042;28;20085;-56
2023/05/07 05:34:17;;;;;;;6.25;5.65;;;;;;;28.08;49.41;96259.19;5002488;28;20084;-57
2023/05/07 05:36:45;;;;;;;7.80;5.35;;;;;;;27.10;51.83;96257.47;4998882;28;20458;-56
2023/05/07 05:39:14;;;;;;;7.57;5.63;;;;;;;26.95;51.61;96260.03;4990267;28;20096;-58
2023/05/07 05:41:42;;;;;;;6.75;5.63;;;;;;;25.80;58.20;96268.69;4997786;28;20137;-55
2023/05/07 05:44:11;;;;;;;6.40;5.70;;;;;;;26.42;55.90;96259.59;5001805;28;20097;-55
2023/05/07 05:46:40;;;;;;;7.43;5.63;;;;;;;26.01;60.22;96261.69;5001936;28;20084;-54
2023/05/07 05:49:08;;;;;;;7.93;6.53;;;;;;;25.79;61.54;96260.81;4997213;28;20084;-55
2023/05/07 05:51:36;;;;;;;8.35;6.80;;;;;;;25.09;66.21;96262.00;5000052;28;20089;-59
2023/05/07 05:54:05;;;;;;;9.60;6.22;;;;;;;24.29;75.60;96260.88;5001635;28;20080;-55
2023/05/07 05:56:34;;;;;;;7.00;6.30;;;;;;;24.72;74.19;96259.66;4996554;28;20092;-57
2023/05/07 05:59:02;;;;;;;9.18;7.15;;;;;;;24.46;76.13;96262.88;5000687;28;20645;-55
2023/05/07 06:01:32;;;;;;;8.35;6.95;;;;;;;24.44;82.17;96263.13;5002131;28;20104;-54
2023/05/07 06:04:00;;;;;;;8.47;6.93;;;;;;;24.17;83.21;96268.97;4992447;28;20089;-61
2023/05/07 06:06:28;;;;;;;11.27;7.47;;;;;;;24.27;83.68;96262.19;5003707;28;20510;-62
2023/05/07 06:08:57;;;;;;;11.77;7.65;;;;;;;24.91;79.55;96254.06;5002846;28;20538;-61
2023/05/07 06:11:25;;;;;;;10.45;8.15;;;;;;;24.06;86.78;96261.72;5002113;28;20081;-61
2023/05/07 06:13:53;;;;;;;12.23;8.50;;;;;;;23.72;95.25;96266.03;4999313;28;20094;-61
2023/05/07 06:16:22;;;;;;;9.35;7.93;;;;;;;24.44;93.19;96263.13;5002777;28;20093;-60
2023/05/07 06:18:52;;;;;;;10.27;7.75;;;;;;;24.66;91.31;96266.00;5005661;28;20080;-61
2023/05/07 06:21:20;;;;;;;10.23;8.27;;;;;;;23.35;100.00;96274.22;5006291;28;20086;-62
2023/05/07 06:23:48;;;;;;;10.10;8.10;;;;;;;24.09;95.44;96276.59;5006731;28;20504;-62
2023/05/07 06:26:16;;;;;;;10.73;8.02;;;;;;;25.65;79.82;96262.19;5007256;28;20081;-62
2023/05/07 06:28:45;;;;;;;9.13;7.80;;;;;;;24.86;85.72;96269.09;5006655;28;20085;-62
2023/05/07 06:31:15;;;;;;;10.05;8.13;;;;;;;26.11;75.35;96269.16;5004819;28;20537;-61
2023/05/07 06:33:45;;;;;;;10.27;7.95;;;;;;;26.49;67.27;96271.06;4997859;28;20100;-62
2023/05/07 06:36:15;;;;;;;9.80;7.65;;;;;;;25.48;73.66;96271.09;4996604;28;20469;-61
2023/05/07 06:38:43;;;;;;;9.32;7.97;;;;;;;26.49;70.31;96268.38;4999273;28;20148;-60
2023/05/07 06:41:11;;;;;;;11.32;8.40;;;;;;;26.99;65.56;96269.25;5002483;28;20090;-62
2023/05/07 06:43:39;;;;;;;12.05;8.00;;;;;;;26.81;64.80;96275.81;5007044;28;20568;-62
2023/05/07 06:46:08;;;;;;;9.68;7.32;;;;;;;26.56;67.27;96283.59;5007337;28;20081;-61
2023/05/07 06:48:36;;;;;;;8.63;7.25;;;;;;;27.07;65.70;96278.81;5006335;28;20097;-62
2023/05/07 06:51:05;;;;;;;9.07;7.50;;;;;;;27.16;64.47;96277.34;4997303;28;20082;-60
2023/05/07 06:53:35;;;;;;;10.48;7.57;;;;;;;27.47;62.04;96278.47;4999109;28;20088;-60
2023/05/07 06:56:03;;;;;;;;;;;;;;;27.45;63.30;96288.72;5007801;28;20086;-58
2023/05/07 06:58:32;;;;;;;10.75;7.93;;;;;;;27.85;62.47;96277.47;5003385;28;19984;-59
2023/05/07 07:01:00;;;;;;;9.25;7.25;;;;;;;27.61;61.19;96287.00;5011156;28;20065;-59
2023/05/07 07:03:29;;;;;;;10.15;7.88;;;;;;;27.12;67.10;96287.84;5005277;28;20076;-58
2023/05/07 07:05:57;;;;;;;9.35;8.18;;;;;;;27.80;61.00;96276.59;5010986;28;20081;-58
2023/05/07 07:08:25;;;;;;;10.02;8.43;;;;;;;27.44;60.87;96289.81;5009413;28;20129;-57
2023/05/07 07:10:55;;;;;;;12.80;8.52;;;;;;;28.50;56.40;96289.06;5007979;28;20466;-57
2023/05/07 07:13:23;;;;;;;13.37;9.43;;;;;;;27.57;60.53;96294.00;5008658;28;20082;-58
2023/05/07 07:15:52;;;;;;;11.93;8.90;;;;;;;28.34;58.87;96295.44;5010277;28;20057;-60
2023/05/07 07:18:21;;;;;;;12.65;9.77;;;;;;;27.44;64.47;96304.16;5007453;28;20084;-55
2023/05/07 07:20:49;;;;;;;13.02;9.52;;;;;;;27.16;61.91;96297.09;5005564;28;20092;-60
2023/05/07 07:23:18;;;;;;;13.70;10.32;;;;;;;27.14;63.49;96299.22;5013637;28;20089;-56
2023/05/07 07:25:46;;;;;;;12.80;9.45;;;;;;;27.41;65.03;96298.44;5002894;28;20089;-57
2023/05/07 07:28:16;;;;;;;11.00;9.00;;;;;;;27.74;67.30;96296.59;5007666;28;20081;-55
2023/05/07 07:30:44;;;;;;;12.82;9.05;;;;;;;28.48;60.32;96287.69;5010382;28;20092;-53
2023/05/07 07:33:12;;;;;;;13.98;9.77;;;;;;;27.88;62.29;96293.22;5008223;28;20082;-59
2023/05/07 07:35:41;;;;;;;12.82;8.02;;;;;;;27.85;61.65;96290.22;5002151;28;20081;-56
2023/05/07 07:38:09;;;;;;;12.20;9.23;;;;;;;28.44;61.88;96290.09;5002336;28;20085;-57
2023/05/07 07:40:37;;;;;;;13.45;9.43;;;;;;;26.86;68.82;96294.81;5003016;28;20082;-57
2023/05/07 07:43:06;;;;;;;12.30;9.50;;;;;;;27.07;67.74;96287.75;4992390;28;20077;-58
2023/05/07 07:45:36;;;;;;;12.68;8.88;;;;;;;28.03;60.83;96289.78;5002478;28;20073;-59
2023/05/07 07:48:04;;;;;;;11.70;8.40;;;;;;;27.80;64.88;96287.44;4988407;28;20077;-58
2023/05/07 07:50:32;;;;;;;12.95;9.07;;;;;;;28.58;61.52;96293.16;5000807;28;20101;-59
2023/05/07 07:53:12;;;;;;;11.13;9.18;;;;;;;28.29;62.32;96295.41;5003122;28;20481;-56
2023/05/07 07:55:41;;;;;;;11.05;8.40;;;;;;;27.87;61.50;96297.00;5002257;28;20089;-58
2023/05/07 07:58:09;;;;;;;11.95;9.93;;;;;;;27.50;66.17;96294.19;5001892;28;20084;-58
2023/05/07 08:00:39;;;;;;;14.88;9.93;;;;;;;28.09;66.21;96294.19;5003053;28;20787;-58
2023/05/07 08:03:10;;;;;;;12.07;8.10;;;;;;;27.77;66.51;96296.06;4999798;28;20082;-60
2023/05/07 08:05:39;;;;;;;11.82;8.85;;;;;;;27.92;62.76;96294.31;4997891;28;20481;-60
2023/05/07 08:08:07;;;;;;;12.48;9.27;;;;;;;28.92;62.59;96288.16;5004152;28;20112;-59
2023/05/07 08:10:38;;;;;;;11.18;9.60;;;;;;;28.68;62.63;96293.22;5000869;28;20093;-58
2023/05/07 08:13:06;;;;;;;12.43;10.25;;;;;;;27.84;67.74;96297.53;4997147;28;20100;-59
2023/05/07 08:15:35;;;;;;;13.60;9.93;;;;;;;29.00;60.78;96289.59;5002317;28;20096;-59
2023/05/07 08:18:05;;;;;;;13.05;9.30;;;;;;;28.56;63.76;96289.88;5000032;28;20130;-58
2023/05/07 08:20:35;;;;;;;12.40;9.23;;;;;;;29.19;64.26;96292.66;4997711;28;20089;-57
2023/05/07 08:23:04;;;;;;;10.73;8.73;;;;;;;28.29;67.46;96298.13;5003788;28;20093;-58
2023/05/07 08:25:33;;;;;;;10.90;8.05;;;;;;;28.98;62.88;96289.81;5002068;28;20619;-56
2023/05/07 08:28:03;;;;;;;11.18;8.88;;;;;;;29.16;61.63;96295.88;5001566;28;20089;-56
2023/05/07 08:30:31;;;;;;;12.70;8.60;;;;;;;29.60;61.24;96292.78;5005513;28;20089;-59
2023/05/07 08:33:00;;;;;;;11.27;9.60;;;;;;;29.15;57.69;96299.66;4999615;28;20097;-56
2023/05/07 08:35:31;;;;;;;10.63;8.57;;;;;;;29.31;56.92;96291.31;5005020;28;20081;-57
2023/05/07 08:37:59;;;;;;;10.75;8.35;;;;;;;28.32;63.05;96305.72;4998923;28;20527;-57
2023/05/07 08:40:28;;;;;;;10.15;7.97;;;;;;;30.01;56.88;96285.44;4999299;28;20101;-59
2023/05/07 08:42:57;;;;;;;8.88;7.38;;;;;;;29.13;61.03;96294.53;5002288;28;20092;-55
2023/05/07 08:45:27;;;;;;;9.10;7.20;;;;;;;28.91;61.17;96299.31;4998859;28;20125;-59
2023/05/07 08:47:59;;;;;;;8.25;5.85;;;;;;;29.47;60.94;96294.06;5002542;28;20109;-56
2023/05/07 08:50:29;;;;;;;10.25;7.20;;;;;;;29.28;58.27;96301.88;5002392;28;20085;-59
2023/05/07 08:52:58;;;;;;;8.30;6.75;;;;;;;30.56;51.86;96301.97;5005419;28;20084;-60
2023/05/07 08:55:26;;;;;;;19.40;5.53;;;;;;;29.24;60.92;96293.47;5003900;28;20088;-58
2023/05/07 08:57:55;;;;;;;7.85;7.05;;;;;;;29.27;56.21;96302.97;5002067;28;20085;-60
2023/05/07 09:00:23;;;;;;;8.27;6.60;;;;;;;29.50;53.59;96291.63;4998942;28;20082;-56
2023/05/07 09:02:52;;;;;;;9.02;6.18;;;;;;;29.97;55.11;96300.66;5002923;28;20096;-60
2023/05/07 09:05:21;;;;;;;8.35;6.13;;;;;;;29.94;52.09;96296.59;5007653;28;20085;-56
2023/05/07 09:07:51;;;;;;;6.95;5.68;;;;;;;30.96;47.72;96303.78;5002675;28;20084;-57
2023/05/07 09:10:22;;;;;;;20.73;11.05;;;;;;;30.21;51.58;96300.94;5001464;28;20120;-57
2023/05/07 09:12:50;;;;;;;6.55;4.50;;;;;;;30.65;48.34;96297.59;5000341;28;20078;-56
2023/05/07 09:15:19;;;;;;;6.10;4.85;;;;;;;29.68;49.94;96300.38;4988117;28;20107;-58
2023/05/07 09:17:47;;;;;;;5.50;4.43;;;;;;;30.60;47.02;96298.44;4997789;28;20089;-58
2023/05/07 09:20:17;;;;;;;5.03;4.47;;;;;;;30.86;46.08;96296.47;4997974;28;20085;-59
2023/05/07 09:22:45;;;;;;;5.20;3.90;;;;;;;31.10;45.63;96296.63;4999981;28;20500;-59
2023/05/07 09:25:15;;;;;;;12.20;5.28;;;;;;;30.08;46.80;96305.03;4986604;28;20073;-55
2023/05/07 09:27:44;;;;;;;7.13;3.65;;;;;;;30.50;45.50;96295.75;4996143;28;20073;-56
2023/05/07 09:30:13;;;;;;;6.03;3.88;;;;;;;30.50;43.62;96302.00;5001563;28;20762;-54
2023/05/07 09:32:41;;;;;;;6.72;3.50;;;;;;;30.44;42.36;96294.91;5000029;28;20129;-56
2023/05/07 09:35:16;;;;;;;4.30;3.90;;;;;;;29.62;44.52;96296.00;5000851;28;20148;-56
2023/05/07 09:37:44;;;;;;;4.93;3.25;;;;;;;30.65;42.72;96303.03;5000233;28;20074;-52
2023/05/07 09:40:23;;;;;;;6.05;4.13;;;;;;;30.33;42.85;96290.59;5002150;28;20089;-54
2023/05/07 09:42:51;;;;;;;5.88;4.43;;;;;;;31.55;41.73;96292.03;5002324;28;20057;-59
2023/05/07 09:45:23;;;;;;;6.22;4.25;;;;;;;31.86;40.59;96295.38;5002929;28;20559;-56
2023/05/07 09:47:56;;;;;;;5.68;4.38;;;;;;;30.29;46.73;96294.16;5001602;28;20777;-56
2023/05/07 09:50:28;;;;;;;5.05;3.95;;;;;;;30.42;45.08;96290.84;5000060;28;20077;-55
2023/05/07 09:52:57;;;;;;;4.32;3.88;;;;;;;30.40;42.61;96288.41;5006065;28;20098;-55
2023/05/07 09:55:27;;;;;;;18.05;3.03;;;;;;;29.89;42.46;96293.84;4993405;28;20082;-53
2023/05/07 09:57:56;;;;;;;3.67;2.63;;;;;;;29.78;41.69;96293.03;5004432;28;20074;-56
2023/05/07 10:00:25;;;;;;;4.60;3.38;;;;;;;30.47;41.48;96296.28;5006795;28;20077;-54
2023/05/07 10:02:53;;;;;;;6.57;4.05;;;;;;;30.95;42.52;96283.91;5004415;28;20094;-49
2023/05/07 10:05:23;;;;;;;3.22;2.53;;;;;;;30.90;41.65;96285.81;5003224;28;20104;-53
2023/05/07 10:07:51;;;;;;;6.20;4.60;;;;;;;31.17;42.55;96288.97;5001646;28;20054;-49
2023/05/07 10:10:20;;;;;;;5.38;3.40;;;;;;;31.13;41.35;96292.53;4999271;28;20085;-53
2023/05/07 10:12:50;;;;;;;4.85;3.88;;;;;;;31.05;41.18;96284.97;5002120;28;20074;-56
2023/05/07 10:15:19;;;;;;;6.97;5.18;;;;;;;30.37;42.86;96294.41;4997997;28;20058;-55
2023/05/07 10:17:49;;;;;;;6.50;4.40;;;;;;;31.11;41.57;96289.28;4998346;28;20073;-52
2023/05/07 10:20:18;;;;;;;7.47;4.68;;;;;;;31.77;40.38;96290.84;5008057;28;20089;-51
2023/05/07 10:22:48;;;;;;;5.68;4.05;;;;;;;30.75;41.27;96283.94;5016683;28;20088;-49
2023/05/07 10:25:19;;;;;;;5.93;4.07;;;;;;;31.29;41.14;96287.84;5008899;28;20089;-54
2023/05/07 10:27:50;;;;;;;5.65;3.92;;;;;;;31.48;39.17;96288.00;5010681;28;20458;-52
2023/05/07 10:30:28;;;;;;;4.80;4.03;;;;;;;31.47;39.93;96286.41;5015772;28;20551;-53
2023/05/07 10:33:05;;;;;;;6.75;4.40;;;;;;;31.06;40.94;96302.94;5003220;28;20085;-55
2023/05/07 10:35:40;;;;;;;6.13;4.20;;;;;;;31.23;40.97;96299.84;5010523;28;20545;-50
2023/05/07 10:38:10;;;;;;;7.68;4.00;;;;;;;31.00;40.60;96298.59;5006956;28;20085;-52
2023/05/07 10:40:38;;;;;;;4.95;3.95;;;;;;;31.92;38.75;96288.81;5010909;28;20077;-51
2023/05/07 10:43:10;;;;;;;4.60;3.33;;;;;;;31.01;39.12;96286.63;5005454;28;20541;-53
2023/05/07 10:45:38;;;;;;;4.18;3.05;;;;;;;30.68;39.42;96280.72;5009404;28;20080;-55
2023/05/07 10:48:10;;;;;;;5.45;3.75;;;;;;;31.22;39.10;96285.41;5010900;28;20081;-54
2023/05/07 10:51:19;;;;;;;4.63;4.03;;;;;;;30.71;39.55;96291.84;5010655;28;20050;-53
2023/05/07 10:53:47;;;;;;;5.75;3.67;;;;;;;30.76;40.01;96277.44;5007653;28;20092;-55
2023/05/07 10:56:27;;;;;;;5.32;3.88;;;;;;;30.22;39.88;96289.81;5010730;28;20085;-50
2023/05/07 10:58:57;;;;;;;;;;;;;;;31.23;38.72;96278.88;5011980;28;20081;-54
2023/05/07 11:01:50;;;;;;;6.35;3.92;;;;;;;30.56;38.98;96289.19;5008131;28;20068;-53
2023/05/07 11:04:24;;;;;;;6.32;3.83;;;;;;;31.30;36.79;96289.47;4996078;28;20049;-57
2023/05/07 11:07:26;;;;;;;4.63;2.70;;;;;;;31.19;37.40;96281.34;5007190;28;20081;-56
2023/05/07 11:10:03;;;;;;;6.07;3.47;;;;;;;31.14;37.45;96288.72;5008419;28;20077;-49
2023/05/07 11:12:54;;;;;;;5.18;3.22;;;;;;;31.74;37.28;96286.75;5010126;28;20166;-54
2023/05/07 11:15:41;;;;;;;2.97;2.40;;;;;;;31.43;36.25;96292.41;5005550;28;20077;-47
2023/05/07 11:18:10;;;;;;;3.40;2.92;;;;;;;31.80;35.46;96293.00;5009821;28;20478;-50
2023/05/07 11:20:55;;;;;;;2.38;2.00;;;;;;;32.21;34.13;96289.94;5005739;28;20088;-49
2023/05/07 11:23:58;;;;;;;4.72;2.80;;;;;;;31.92;33.84;96285.28;5005218;28;20085;-48
2023/05/07 11:26:28;;;;;;;3.10;2.20;;;;;;;31.99;34.17;96277.56;5003263;28;20080;-49
2023/05/07 11:28:56;;;;;;;4.00;2.70;;;;;;;32.91;32.80;96275.84;5009725;28;20085;-54
2023/05/07 11:31:28;;;;;;;4.93;2.33;;;;;;;32.39;33.22;96279.13;5011832;28;20077;-49
2023/05/07 11:33:57;;;;;;;3.63;2.40;;;;;;;33.10;33.76;96271.25;5003803;28;20089;-49
2023/05/07 11:36:25;;;;;;;3.22;2.60;;;;;;;32.65;35.06;96276.13;5008500;28;20085;-52
2023/05/07 11:38:54;;;;;;;4.88;3.10;;;;;;;32.10;34.95;96270.09;5006565;28;20732;-54
2023/05/07 11:41:22;;;;;;;4.65;2.80;;;;;;;33.25;32.68;96260.13;5009715;28;20080;-52
2023/05/07 11:43:58;;;;;;;3.78;2.40;;;;;;;32.82;35.08;96268.28;5006030;28;20560;-50